Terminal Aerodrome Forecast
Issued by NWS Wilmington, OH

Current Version | Previous Version | Text Only | Print | Product List | Glossary Off
Versions: 1 2 3 4 5 6 7 8 9 10 11 12 13 14 15 16 17 18

871
FTUS41 KILN 201722
TAFILN
TAF
KILN 201722Z 2018/2118 22012G20KT P6SM BKN250
     FM202200 20009KT P6SM SCT250
     FM210600 20011KT P6SM SCT250 WS020/23040KT
     FM211400 21014G24KT P6SM BKN250=

USA.gov is the U.S. government's official web portal to all federal, state and local government web resources and services.